sensor_id;sensor_type;location;lat;lon;timestamp;P1;durP1;ratioP1;P2;durP2;ratioP2
2416;SDS011;1219;48.736;9.330;2022-11-11T00:00:26;9.37;;;8.20;;
2416;SDS011;1219;48.736;9.330;2022-11-11T00:02:53;9.73;;;7.93;;
2416;SDS011;1219;48.736;9.330;2022-11-11T00:05:19;11.90;;;9.10;;
2416;SDS011;1219;48.736;9.330;2022-11-11T00:07:46;9.63;;;8.60;;
2416;SDS011;1219;48.736;9.330;2022-11-11T00:10:12;15.03;;;9.50;;
2416;SDS011;1219;48.736;9.330;2022-11-11T00:12:38;15.03;;;11.07;;
2416;SDS011;1219;48.736;9.330;2022-11-11T00:15:04;12.17;;;10.70;;
2416;SDS011;1219;48.736;9.330;2022-11-11T00:17:30;12.10;;;10.90;;
2416;SDS011;1219;48.736;9.330;2022-11-11T00:20:16;12.10;;;10.07;;
2416;SDS011;1219;48.736;9.330;2022-11-11T00:23:01;11.47;;;10.27;;
2416;SDS011;1219;48.736;9.330;2022-11-11T00:25:45;9.77;;;8.70;;
2416;SDS011;1219;48.736;9.330;2022-11-11T00:28:11;13.73;;;9.67;;
2416;SDS011;1219;48.736;9.330;2022-11-11T00:30:37;13.03;;;10.20;;
2416;SDS011;1219;48.736;9.330;2022-11-11T00:33:03;11.97;;;10.13;;
2416;SDS011;1219;48.736;9.330;2022-11-11T00:35:29;11.00;;;9.60;;
2416;SDS011;1219;48.736;9.330;2022-11-11T00:38:14;11.03;;;9.73;;
2416;SDS011;1219;48.736;9.330;2022-11-11T00:40:59;12.20;;;9.03;;
2416;SDS011;1219;48.736;9.330;2022-11-11T00:43:26;12.60;;;9.60;;
2416;SDS011;1219;48.736;9.330;2022-11-11T00:45:52;12.37;;;9.20;;
2416;SDS011;1219;48.736;9.330;2022-11-11T00:48:18;11.60;;;8.93;;
2416;SDS011;1219;48.736;9.330;2022-11-11T00:51:02;10.50;;;9.10;;
2416;SDS011;1219;48.736;9.330;2022-11-11T00:53:29;10.90;;;9.77;;
2416;SDS011;1219;48.736;9.330;2022-11-11T00:56:00;10.63;;;9.20;;
2416;SDS011;1219;48.736;9.330;2022-11-11T00:58:26;13.50;;;8.93;;
2416;SDS011;1219;48.736;9.330;2022-11-11T01:00:52;10.30;;;9.30;;
2416;SDS011;1219;48.736;9.330;2022-11-11T01:03:19;11.50;;;8.70;;
2416;SDS011;1219;48.736;9.330;2022-11-11T01:05:45;11.93;;;8.63;;
2416;SDS011;1219;48.736;9.330;2022-11-11T01:08:12;11.37;;;8.40;;
2416;SDS011;1219;48.736;9.330;2022-11-11T01:10:38;9.33;;;8.30;;
2416;SDS011;1219;48.736;9.330;2022-11-11T01:13:15;10.13;;;8.20;;
2416;SDS011;1219;48.736;9.330;2022-11-11T01:15:43;9.37;;;8.23;;
2416;SDS011;1219;48.736;9.330;2022-11-11T01:18:10;11.53;;;8.90;;
2416;SDS011;1219;48.736;9.330;2022-11-11T01:20:36;9.70;;;7.90;;
2416;SDS011;1219;48.736;9.330;2022-11-11T01:23:03;9.90;;;8.43;;
2416;SDS011;1219;48.736;9.330;2022-11-11T01:25:31;9.63;;;8.03;;
2416;SDS011;1219;48.736;9.330;2022-11-11T01:27:57;10.20;;;8.83;;
2416;SDS011;1219;48.736;9.330;2022-11-11T01:30:23;12.73;;;8.97;;
2416;SDS011;1219;48.736;9.330;2022-11-11T01:32:49;8.37;;;7.50;;
2416;SDS011;1219;48.736;9.330;2022-11-11T01:35:15;13.13;;;9.37;;
2416;SDS011;1219;48.736;9.330;2022-11-11T01:37:41;8.93;;;7.93;;
2416;SDS011;1219;48.736;9.330;2022-11-11T01:40:07;9.03;;;7.60;;
2416;SDS011;1219;48.736;9.330;2022-11-11T01:47:57;15.23;;;8.30;;
2416;SDS011;1219;48.736;9.330;2022-11-11T01:50:41;8.70;;;7.77;;
2416;SDS011;1219;48.736;9.330;2022-11-11T01:53:09;9.33;;;7.70;;
2416;SDS011;1219;48.736;9.330;2022-11-11T01:55:35;13.23;;;8.30;;
2416;SDS011;1219;48.736;9.330;2022-11-11T01:58:08;10.77;;;8.50;;
2416;SDS011;1219;48.736;9.330;2022-11-11T02:00:36;11.60;;;9.00;;
2416;SDS011;1219;48.736;9.330;2022-11-11T02:03:05;9.50;;;8.37;;
2416;SDS011;1219;48.736;9.330;2022-11-11T02:05:33;8.33;;;7.50;;
2416;SDS011;1219;48.736;9.330;2022-11-11T02:08:10;12.90;;;8.70;;
2416;SDS011;1219;48.736;9.330;2022-11-11T02:10:37;9.53;;;8.53;;
2416;SDS011;1219;48.736;9.330;2022-11-11T02:13:07;14.90;;;10.60;;
2416;SDS011;1219;48.736;9.330;2022-11-11T02:15:53;12.77;;;11.13;;
2416;SDS011;1219;48.736;9.330;2022-11-11T02:18:19;14.63;;;11.37;;
2416;SDS011;1219;48.736;9.330;2022-11-11T02:20:45;12.10;;;10.20;;
2416;SDS011;1219;48.736;9.330;2022-11-11T02:25:47;11.03;;;9.93;;
2416;SDS011;1219;48.736;9.330;2022-11-11T02:28:13;16.03;;;10.60;;
2416;SDS011;1219;48.736;9.330;2022-11-11T02:30:40;12.63;;;9.90;;
2416;SDS011;1219;48.736;9.330;2022-11-11T02:33:05;19.07;;;10.77;;
2416;SDS011;1219;48.736;9.330;2022-11-11T02:35:35;13.27;;;9.77;;
2416;SDS011;1219;48.736;9.330;2022-11-11T02:38:03;11.70;;;10.50;;
2416;SDS011;1219;48.736;9.330;2022-11-11T02:40:36;13.53;;;10.30;;
2416;SDS011;1219;48.736;9.330;2022-11-11T02:43:03;13.83;;;10.30;;
2416;SDS011;1219;48.736;9.330;2022-11-11T02:45:29;14.50;;;9.60;;
2416;SDS011;1219;48.736;9.330;2022-11-11T02:47:55;12.20;;;10.23;;
2416;SDS011;1219;48.736;9.330;2022-11-11T02:50:21;11.50;;;10.40;;
2416;SDS011;1219;48.736;9.330;2022-11-11T02:52:47;13.00;;;10.93;;
2416;SDS011;1219;48.736;9.330;2022-11-11T02:55:13;13.77;;;10.30;;
2416;SDS011;1219;48.736;9.330;2022-11-11T02:57:39;15.53;;;11.63;;
2416;SDS011;1219;48.736;9.330;2022-11-11T03:00:05;18.77;;;13.03;;
2416;SDS011;1219;48.736;9.330;2022-11-11T03:02:31;23.60;;;12.67;;
2416;SDS011;1219;48.736;9.330;2022-11-11T03:04:57;18.70;;;13.03;;
2416;SDS011;1219;48.736;9.330;2022-11-11T03:07:23;18.97;;;13.00;;
2416;SDS011;1219;48.736;9.330;2022-11-11T03:09:49;26.30;;;13.40;;
2416;SDS011;1219;48.736;9.330;2022-11-11T03:12:16;31.83;;;13.93;;
2416;SDS011;1219;48.736;9.330;2022-11-11T03:14:42;22.30;;;11.60;;
2416;SDS011;1219;48.736;9.330;2022-11-11T03:17:08;18.37;;;11.43;;
2416;SDS011;1219;48.736;9.330;2022-11-11T03:19:53;27.27;;;11.93;;
2416;SDS011;1219;48.736;9.330;2022-11-11T03:22:39;43.07;;;13.03;;
2416;SDS011;1219;48.736;9.330;2022-11-11T03:25:05;30.77;;;13.20;;
2416;SDS011;1219;48.736;9.330;2022-11-11T03:27:50;28.60;;;13.67;;
2416;SDS011;1219;48.736;9.330;2022-11-11T03:30:16;46.47;;;16.90;;
2416;SDS011;1219;48.736;9.330;2022-11-11T03:32:42;86.23;;;17.00;;
2416;SDS011;1219;48.736;9.330;2022-11-11T03:35:08;40.90;;;16.50;;
2416;SDS011;1219;48.736;9.330;2022-11-11T03:37:34;39.33;;;14.20;;
2416;SDS011;1219;48.736;9.330;2022-11-11T03:40:19;37.13;;;15.00;;
2416;SDS011;1219;48.736;9.330;2022-11-11T03:42:45;28.47;;;15.00;;
2416;SDS011;1219;48.736;9.330;2022-11-11T03:45:11;23.00;;;15.17;;
2416;SDS011;1219;48.736;9.330;2022-11-11T03:47:37;18.10;;;13.33;;
2416;SDS011;1219;48.736;9.330;2022-11-11T03:50:03;17.43;;;13.10;;
2416;SDS011;1219;48.736;9.330;2022-11-11T03:52:29;14.20;;;12.07;;
2416;SDS011;1219;48.736;9.330;2022-11-11T03:54:55;17.10;;;13.03;;
2416;SDS011;1219;48.736;9.330;2022-11-11T03:57:21;15.77;;;11.00;;
2416;SDS011;1219;48.736;9.330;2022-11-11T03:59:56;15.23;;;11.53;;
2416;SDS011;1219;48.736;9.330;2022-11-11T04:02:22;16.13;;;10.63;;
2416;SDS011;1219;48.736;9.330;2022-11-11T04:05:06;17.60;;;12.20;;
2416;SDS011;1219;48.736;9.330;2022-11-11T04:07:51;15.83;;;11.00;;
2416;SDS011;1219;48.736;9.330;2022-11-11T04:10:35;16.50;;;12.40;;
2416;SDS011;1219;48.736;9.330;2022-11-11T04:13:01;15.40;;;10.60;;
2416;SDS011;1219;48.736;9.330;2022-11-11T04:15:46;13.13;;;10.17;;
2416;SDS011;1219;48.736;9.330;2022-11-11T04:18:31;16.97;;;12.30;;
2416;SDS011;1219;48.736;9.330;2022-11-11T04:21:15;17.73;;;11.57;;
2416;SDS011;1219;48.736;9.330;2022-11-11T04:24:00;13.20;;;11.20;;
2416;SDS011;1219;48.736;9.330;2022-11-11T04:26:26;16.70;;;12.97;;
2416;SDS011;1219;48.736;9.330;2022-11-11T04:28:52;19.73;;;12.77;;
2416;SDS011;1219;48.736;9.330;2022-11-11T04:31:38;16.73;;;11.33;;
2416;SDS011;1219;48.736;9.330;2022-11-11T04:34:24;15.60;;;12.00;;
2416;SDS011;1219;48.736;9.330;2022-11-11T04:36:50;16.97;;;12.13;;
2416;SDS011;1219;48.736;9.330;2022-11-11T04:39:16;12.70;;;10.60;;
2416;SDS011;1219;48.736;9.330;2022-11-11T04:42:01;13.80;;;10.20;;
2416;SDS011;1219;48.736;9.330;2022-11-11T04:44:26;8.90;;;8.00;;
2416;SDS011;1219;48.736;9.330;2022-11-11T04:47:11;11.77;;;9.07;;
2416;SDS011;1219;48.736;9.330;2022-11-11T04:49:37;14.13;;;9.23;;
2416;SDS011;1219;48.736;9.330;2022-11-11T04:52:03;22.03;;;10.03;;
2416;SDS011;1219;48.736;9.330;2022-11-11T04:54:47;24.40;;;9.43;;
2416;SDS011;1219;48.736;9.330;2022-11-11T04:57:32;14.40;;;10.00;;
2416;SDS011;1219;48.736;9.330;2022-11-11T04:59:58;12.00;;;10.03;;
2416;SDS011;1219;48.736;9.330;2022-11-11T05:02:24;12.50;;;11.27;;
2416;SDS011;1219;48.736;9.330;2022-11-11T05:05:08;24.30;;;10.90;;
2416;SDS011;1219;48.736;9.330;2022-11-11T05:07:34;14.63;;;10.93;;
2416;SDS011;1219;48.736;9.330;2022-11-11T05:10:19;19.53;;;11.17;;
2416;SDS011;1219;48.736;9.330;2022-11-11T05:12:45;16.57;;;10.97;;
2416;SDS011;1219;48.736;9.330;2022-11-11T05:15:12;29.60;;;11.40;;
2416;SDS011;1219;48.736;9.330;2022-11-11T05:18:07;18.00;;;11.20;;
2416;SDS011;1219;48.736;9.330;2022-11-11T05:20:52;12.33;;;10.57;;
2416;SDS011;1219;48.736;9.330;2022-11-11T05:23:37;17.30;;;11.87;;
2416;SDS011;1219;48.736;9.330;2022-11-11T05:26:22;26.93;;;11.87;;
2416;SDS011;1219;48.736;9.330;2022-11-11T05:28:48;24.70;;;12.70;;
2416;SDS011;1219;48.736;9.330;2022-11-11T05:31:14;29.53;;;13.10;;
2416;SDS011;1219;48.736;9.330;2022-11-11T05:33:40;32.43;;;12.83;;
2416;SDS011;1219;48.736;9.330;2022-11-11T05:36:06;37.57;;;12.57;;
2416;SDS011;1219;48.736;9.330;2022-11-11T05:38:32;19.37;;;11.80;;
2416;SDS011;1219;48.736;9.330;2022-11-11T05:43:24;17.73;;;11.33;;
2416;SDS011;1219;48.736;9.330;2022-11-11T05:45:50;13.37;;;10.60;;
2416;SDS011;1219;48.736;9.330;2022-11-11T05:48:16;18.97;;;9.50;;
2416;SDS011;1219;48.736;9.330;2022-11-11T05:50:42;21.13;;;11.93;;
2416;SDS011;1219;48.736;9.330;2022-11-11T05:53:08;14.90;;;11.90;;
2416;SDS011;1219;48.736;9.330;2022-11-11T05:55:34;16.07;;;11.20;;
2416;SDS011;1219;48.736;9.330;2022-11-11T05:58:00;27.67;;;11.00;;
2416;SDS011;1219;48.736;9.330;2022-11-11T06:00:26;16.13;;;10.73;;
2416;SDS011;1219;48.736;9.330;2022-11-11T06:02:51;12.67;;;11.30;;
2416;SDS011;1219;48.736;9.330;2022-11-11T06:05:18;24.00;;;10.80;;
2416;SDS011;1219;48.736;9.330;2022-11-11T06:07:44;23.53;;;12.40;;
2416;SDS011;1219;48.736;9.330;2022-11-11T06:10:10;14.07;;;10.23;;
2416;SDS011;1219;48.736;9.330;2022-11-11T06:12:54;18.90;;;11.17;;
2416;SDS011;1219;48.736;9.330;2022-11-11T06:15:28;11.47;;;10.00;;
2416;SDS011;1219;48.736;9.330;2022-11-11T06:17:55;14.67;;;10.40;;
2416;SDS011;1219;48.736;9.330;2022-11-11T06:20:20;14.43;;;9.63;;
2416;SDS011;1219;48.736;9.330;2022-11-11T06:22:46;11.17;;;10.07;;
2416;SDS011;1219;48.736;9.330;2022-11-11T06:25:22;13.33;;;10.57;;
2416;SDS011;1219;48.736;9.330;2022-11-11T06:28:07;11.00;;;9.80;;
2416;SDS011;1219;48.736;9.330;2022-11-11T06:30:33;12.07;;;9.70;;
2416;SDS011;1219;48.736;9.330;2022-11-11T06:32:59;11.77;;;9.47;;
2416;SDS011;1219;48.736;9.330;2022-11-11T06:35:25;13.80;;;9.27;;
2416;SDS011;1219;48.736;9.330;2022-11-11T06:37:51;12.17;;;9.60;;
2416;SDS011;1219;48.736;9.330;2022-11-11T06:40:17;10.13;;;9.13;;
2416;SDS011;1219;48.736;9.330;2022-11-11T06:42:43;10.63;;;9.37;;
2416;SDS011;1219;48.736;9.330;2022-11-11T06:45:09;11.13;;;8.87;;
2416;SDS011;1219;48.736;9.330;2022-11-11T06:47:35;10.60;;;8.73;;
2416;SDS011;1219;48.736;9.330;2022-11-11T06:50:01;18.10;;;10.63;;
2416;SDS011;1219;48.736;9.330;2022-11-11T06:52:27;27.40;;;17.17;;
2416;SDS011;1219;48.736;9.330;2022-11-11T06:54:53;27.50;;;20.70;;
2416;SDS011;1219;48.736;9.330;2022-11-11T06:57:21;16.87;;;12.93;;
2416;SDS011;1219;48.736;9.330;2022-11-11T06:59:47;27.70;;;20.67;;
2416;SDS011;1219;48.736;9.330;2022-11-11T07:02:13;20.17;;;15.73;;
2416;SDS011;1219;48.736;9.330;2022-11-11T07:04:39;15.73;;;10.93;;
2416;SDS011;1219;48.736;9.330;2022-11-11T07:07:05;12.37;;;11.10;;
2416;SDS011;1219;48.736;9.330;2022-11-11T07:09:31;12.30;;;10.30;;
2416;SDS011;1219;48.736;9.330;2022-11-11T07:11:57;12.43;;;11.23;;
2416;SDS011;1219;48.736;9.330;2022-11-11T07:14:23;12.17;;;10.43;;
2416;SDS011;1219;48.736;9.330;2022-11-11T07:16:49;12.50;;;9.80;;
2416;SDS011;1219;48.736;9.330;2022-11-11T07:19:15;10.80;;;8.23;;
2416;SDS011;1219;48.736;9.330;2022-11-11T07:21:41;9.97;;;9.00;;
2416;SDS011;1219;48.736;9.330;2022-11-11T07:24:07;13.10;;;10.37;;
2416;SDS011;1219;48.736;9.330;2022-11-11T07:26:33;9.83;;;8.90;;
2416;SDS011;1219;48.736;9.330;2022-11-11T07:28:59;9.57;;;8.57;;
2416;SDS011;1219;48.736;9.330;2022-11-11T07:31:25;10.63;;;8.60;;
2416;SDS011;1219;48.736;9.330;2022-11-11T07:33:51;11.83;;;8.43;;
2416;SDS011;1219;48.736;9.330;2022-11-11T07:36:18;10.60;;;7.83;;
2416;SDS011;1219;48.736;9.330;2022-11-11T07:38:44;10.80;;;9.70;;
2416;SDS011;1219;48.736;9.330;2022-11-11T07:41:10;8.80;;;8.00;;
2416;SDS011;1219;48.736;9.330;2022-11-11T07:43:36;9.57;;;8.30;;
2416;SDS011;1219;48.736;9.330;2022-11-11T07:46:02;13.33;;;9.03;;
2416;SDS011;1219;48.736;9.330;2022-11-11T07:48:28;9.43;;;8.53;;
2416;SDS011;1219;48.736;9.330;2022-11-11T07:50:54;11.07;;;9.50;;
2416;SDS011;1219;48.736;9.330;2022-11-11T07:53:20;11.53;;;10.23;;
2416;SDS011;1219;48.736;9.330;2022-11-11T07:55:47;10.13;;;9.13;;
2416;SDS011;1219;48.736;9.330;2022-11-11T07:58:13;10.40;;;9.50;;
2416;SDS011;1219;48.736;9.330;2022-11-11T08:00:39;9.70;;;8.70;;
2416;SDS011;1219;48.736;9.330;2022-11-11T08:03:05;8.57;;;7.87;;
2416;SDS011;1219;48.736;9.330;2022-11-11T08:05:31;11.60;;;9.10;;
2416;SDS011;1219;48.736;9.330;2022-11-11T08:08:01;9.53;;;8.63;;
2416;SDS011;1219;48.736;9.330;2022-11-11T08:10:28;10.53;;;9.43;;
2416;SDS011;1219;48.736;9.330;2022-11-11T08:12:53;11.43;;;9.03;;
2416;SDS011;1219;48.736;9.330;2022-11-11T08:15:58;11.63;;;10.53;;
2416;SDS011;1219;48.736;9.330;2022-11-11T08:18:26;11.90;;;9.37;;
2416;SDS011;1219;48.736;9.330;2022-11-11T08:20:52;10.20;;;9.20;;
2416;SDS011;1219;48.736;9.330;2022-11-11T08:23:18;10.40;;;9.33;;
2416;SDS011;1219;48.736;9.330;2022-11-11T08:25:56;12.27;;;9.60;;
2416;SDS011;1219;48.736;9.330;2022-11-11T08:28:22;12.33;;;10.30;;
2416;SDS011;1219;48.736;9.330;2022-11-11T08:30:48;10.17;;;9.20;;
2416;SDS011;1219;48.736;9.330;2022-11-11T08:33:14;9.53;;;8.63;;
2416;SDS011;1219;48.736;9.330;2022-11-11T08:35:40;10.20;;;9.10;;
2416;SDS011;1219;48.736;9.330;2022-11-11T08:38:06;9.67;;;8.83;;
2416;SDS011;1219;48.736;9.330;2022-11-11T08:40:32;10.70;;;9.43;;
2416;SDS011;1219;48.736;9.330;2022-11-11T08:42:58;13.00;;;10.03;;
2416;SDS011;1219;48.736;9.330;2022-11-11T08:45:24;11.30;;;10.20;;
2416;SDS011;1219;48.736;9.330;2022-11-11T08:47:50;10.70;;;9.80;;
2416;SDS011;1219;48.736;9.330;2022-11-11T08:50:18;11.20;;;8.87;;
2416;SDS011;1219;48.736;9.330;2022-11-11T08:52:47;10.70;;;9.70;;
2416;SDS011;1219;48.736;9.330;2022-11-11T08:55:14;10.13;;;9.17;;
2416;SDS011;1219;48.736;9.330;2022-11-11T08:57:40;10.57;;;9.67;;
2416;SDS011;1219;48.736;9.330;2022-11-11T09:00:06;10.30;;;9.27;;
2416;SDS011;1219;48.736;9.330;2022-11-11T09:02:32;10.67;;;9.37;;
2416;SDS011;1219;48.736;9.330;2022-11-11T09:04:58;11.27;;;9.90;;
2416;SDS011;1219;48.736;9.330;2022-11-11T09:07:24;9.53;;;8.73;;
2416;SDS011;1219;48.736;9.330;2022-11-11T09:09:50;13.60;;;10.20;;
2416;SDS011;1219;48.736;9.330;2022-11-11T09:12:16;12.07;;;10.63;;
2416;SDS011;1219;48.736;9.330;2022-11-11T09:14:43;12.57;;;9.17;;
2416;SDS011;1219;48.736;9.330;2022-11-11T09:17:09;10.23;;;9.20;;
2416;SDS011;1219;48.736;9.330;2022-11-11T09:19:34;11.43;;;10.00;;
2416;SDS011;1219;48.736;9.330;2022-11-11T09:22:00;11.40;;;8.87;;
2416;SDS011;1219;48.736;9.330;2022-11-11T09:24:26;10.57;;;9.60;;
2416;SDS011;1219;48.736;9.330;2022-11-11T09:26:52;10.63;;;9.03;;
2416;SDS011;1219;48.736;9.330;2022-11-11T09:29:18;10.20;;;9.30;;
2416;SDS011;1219;48.736;9.330;2022-11-11T09:31:45;12.90;;;8.50;;
2416;SDS011;1219;48.736;9.330;2022-11-11T09:34:11;10.53;;;9.43;;
2416;SDS011;1219;48.736;9.330;2022-11-11T09:36:37;10.40;;;9.30;;
2416;SDS011;1219;48.736;9.330;2022-11-11T09:39:03;11.20;;;10.10;;
2416;SDS011;1219;48.736;9.330;2022-11-11T09:41:35;13.33;;;9.77;;
2416;SDS011;1219;48.736;9.330;2022-11-11T09:44:04;14.93;;;10.30;;
2416;SDS011;1219;48.736;9.330;2022-11-11T09:52:00;9.17;;;8.27;;
2416;SDS011;1219;48.736;9.330;2022-11-11T09:54:33;8.77;;;7.40;;
2416;SDS011;1219;48.736;9.330;2022-11-11T09:57:01;6.80;;;6.30;;
2416;SDS011;1219;48.736;9.330;2022-11-11T09:59:39;7.90;;;7.10;;
2416;SDS011;1219;48.736;9.330;2022-11-11T10:02:08;7.47;;;6.87;;
2416;SDS011;1219;48.736;9.330;2022-11-11T10:04:48;6.50;;;5.90;;
2416;SDS011;1219;48.736;9.330;2022-11-11T10:12:39;7.40;;;6.50;;
2416;SDS011;1219;48.736;9.330;2022-11-11T10:15:11;6.97;;;6.27;;
2416;SDS011;1219;48.736;9.330;2022-11-11T10:20:40;7.13;;;6.43;;
2416;SDS011;1219;48.736;9.330;2022-11-11T10:25:33;8.70;;;7.90;;
2416;SDS011;1219;48.736;9.330;2022-11-11T10:28:00;7.53;;;6.77;;
2416;SDS011;1219;48.736;9.330;2022-11-11T10:30:30;8.70;;;6.20;;
2416;SDS011;1219;48.736;9.330;2022-11-11T10:33:11;7.00;;;6.30;;
2416;SDS011;1219;48.736;9.330;2022-11-11T10:35:38;6.33;;;5.83;;
2416;SDS011;1219;48.736;9.330;2022-11-11T10:43:04;5.90;;;5.60;;
2416;SDS011;1219;48.736;9.330;2022-11-11T10:45:45;5.90;;;5.10;;
2416;SDS011;1219;48.736;9.330;2022-11-11T10:48:13;6.33;;;5.77;;
2416;SDS011;1219;48.736;9.330;2022-11-11T10:50:46;6.37;;;5.87;;
2416;SDS011;1219;48.736;9.330;2022-11-11T10:55:52;6.73;;;5.00;;
2416;SDS011;1219;48.736;9.330;2022-11-11T10:58:22;4.73;;;4.30;;
2416;SDS011;1219;48.736;9.330;2022-11-11T11:00:50;5.43;;;5.03;;
2416;SDS011;1219;48.736;9.330;2022-11-11T11:03:34;8.27;;;5.37;;
2416;SDS011;1219;48.736;9.330;2022-11-11T11:08:28;6.43;;;5.33;;
2416;SDS011;1219;48.736;9.330;2022-11-11T11:15:55;6.90;;;6.30;;
2416;SDS011;1219;48.736;9.330;2022-11-11T11:18:22;6.83;;;5.80;;
2416;SDS011;1219;48.736;9.330;2022-11-11T11:23:33;6.10;;;5.60;;
2416;SDS011;1219;48.736;9.330;2022-11-11T11:26:00;5.43;;;4.93;;
2416;SDS011;1219;48.736;9.330;2022-11-11T11:28:27;7.07;;;6.20;;
2416;SDS011;1219;48.736;9.330;2022-11-11T11:30:57;5.57;;;5.13;;
2416;SDS011;1219;48.736;9.330;2022-11-11T11:33:24;5.53;;;5.00;;
2416;SDS011;1219;48.736;9.330;2022-11-11T11:35:50;6.10;;;5.60;;
2416;SDS011;1219;48.736;9.330;2022-11-11T11:38:16;5.80;;;5.33;;
2416;SDS011;1219;48.736;9.330;2022-11-11T11:40:43;5.43;;;5.03;;
2416;SDS011;1219;48.736;9.330;2022-11-11T11:43:22;6.53;;;5.87;;
2416;SDS011;1219;48.736;9.330;2022-11-11T11:45:55;8.30;;;6.20;;
2416;SDS011;1219;48.736;9.330;2022-11-11T11:53:50;7.57;;;6.03;;
2416;SDS011;1219;48.736;9.330;2022-11-11T11:56:28;6.87;;;6.17;;
2416;SDS011;1219;48.736;9.330;2022-11-11T12:06:55;5.57;;;5.00;;
2416;SDS011;1219;48.736;9.330;2022-11-11T12:11:57;6.23;;;5.63;;
2416;SDS011;1219;48.736;9.330;2022-11-11T12:16:52;6.00;;;5.47;;
2416;SDS011;1219;48.736;9.330;2022-11-11T12:22:17;5.97;;;5.50;;
2416;SDS011;1219;48.736;9.330;2022-11-11T12:27:18;6.50;;;6.00;;
2416;SDS011;1219;48.736;9.330;2022-11-11T12:40:28;9.67;;;5.97;;
2416;SDS011;1219;48.736;9.330;2022-11-11T12:45:30;5.83;;;5.10;;
2416;SDS011;1219;48.736;9.330;2022-11-11T12:50:52;6.70;;;4.67;;
2416;SDS011;1219;48.736;9.330;2022-11-11T12:53:29;5.80;;;5.40;;
2416;SDS011;1219;48.736;9.330;2022-11-11T12:58:33;6.13;;;5.30;;
2416;SDS011;1219;48.736;9.330;2022-11-11T13:01:14;7.03;;;5.30;;
2416;SDS011;1219;48.736;9.330;2022-11-11T13:03:47;5.33;;;4.83;;
2416;SDS011;1219;48.736;9.330;2022-11-11T13:06:19;4.27;;;3.97;;
2416;SDS011;1219;48.736;9.330;2022-11-11T13:08:52;3.67;;;3.37;;
2416;SDS011;1219;48.736;9.330;2022-11-11T13:11:29;5.30;;;3.97;;
2416;SDS011;1219;48.736;9.330;2022-11-11T13:14:04;3.73;;;3.43;;
2416;SDS011;1219;48.736;9.330;2022-11-11T13:16:35;5.23;;;3.20;;
2416;SDS011;1219;48.736;9.330;2022-11-11T13:21:35;4.03;;;3.30;;
2416;SDS011;1219;48.736;9.330;2022-11-11T13:24:08;5.10;;;4.70;;
2416;SDS011;1219;48.736;9.330;2022-11-11T13:26:45;6.87;;;3.40;;
2416;SDS011;1219;48.736;9.330;2022-11-11T13:29:17;3.50;;;3.30;;
2416;SDS011;1219;48.736;9.330;2022-11-11T13:31:46;4.10;;;3.90;;
2416;SDS011;1219;48.736;9.330;2022-11-11T13:34:13;6.00;;;3.57;;
2416;SDS011;1219;48.736;9.330;2022-11-11T13:36:41;4.43;;;4.13;;
2416;SDS011;1219;48.736;9.330;2022-11-11T13:39:15;4.10;;;3.60;;
2416;SDS011;1219;48.736;9.330;2022-11-11T13:41:42;4.63;;;3.50;;
2416;SDS011;1219;48.736;9.330;2022-11-11T13:44:18;9.93;;;4.33;;
2416;SDS011;1219;48.736;9.330;2022-11-11T13:46:47;4.50;;;4.10;;
2416;SDS011;1219;48.736;9.330;2022-11-11T13:49:24;6.80;;;4.30;;
2416;SDS011;1219;48.736;9.330;2022-11-11T13:52:00;4.67;;;4.27;;
2416;SDS011;1219;48.736;9.330;2022-11-11T13:54:33;4.43;;;4.03;;
2416;SDS011;1219;48.736;9.330;2022-11-11T13:57:22;6.27;;;5.00;;
2416;SDS011;1219;48.736;9.330;2022-11-11T14:17:54;3.30;;;3.10;;
2416;SDS011;1219;48.736;9.330;2022-11-11T14:23:11;4.13;;;3.70;;
2416;SDS011;1219;48.736;9.330;2022-11-11T14:25:40;5.20;;;4.50;;
2416;SDS011;1219;48.736;9.330;2022-11-11T14:33:50;4.57;;;4.13;;
2416;SDS011;1219;48.736;9.330;2022-11-11T14:41:47;4.07;;;3.60;;
2416;SDS011;1219;48.736;9.330;2022-11-11T14:57:36;8.60;;;4.70;;
2416;SDS011;1219;48.736;9.330;2022-11-11T15:02:41;4.80;;;4.40;;
2416;SDS011;1219;48.736;9.330;2022-11-11T15:05:12;4.23;;;3.87;;
2416;SDS011;1219;48.736;9.330;2022-11-11T15:10:49;5.30;;;3.20;;
2416;SDS011;1219;48.736;9.330;2022-11-11T15:15:58;5.90;;;4.93;;
2416;SDS011;1219;48.736;9.330;2022-11-11T15:18:38;5.30;;;4.80;;
2416;SDS011;1219;48.736;9.330;2022-11-11T15:21:12;4.80;;;4.40;;
2416;SDS011;1219;48.736;9.330;2022-11-11T15:29:04;9.20;;;7.03;;
2416;SDS011;1219;48.736;9.330;2022-11-11T15:31:40;8.63;;;6.20;;
2416;SDS011;1219;48.736;9.330;2022-11-11T15:34:10;8.77;;;5.27;;
2416;SDS011;1219;48.736;9.330;2022-11-11T15:36:44;6.03;;;4.83;;
2416;SDS011;1219;48.736;9.330;2022-11-11T15:39:15;5.60;;;4.47;;
2416;SDS011;1219;48.736;9.330;2022-11-11T15:41:42;5.73;;;4.57;;
2416;SDS011;1219;48.736;9.330;2022-11-11T15:44:13;9.43;;;4.60;;
2416;SDS011;1219;48.736;9.330;2022-11-11T15:46:40;11.77;;;5.80;;
2416;SDS011;1219;48.736;9.330;2022-11-11T15:49:11;5.47;;;4.97;;
2416;SDS011;1219;48.736;9.330;2022-11-11T15:51:38;5.20;;;4.70;;
2416;SDS011;1219;48.736;9.330;2022-11-11T15:54:19;4.53;;;4.13;;
2416;SDS011;1219;48.736;9.330;2022-11-11T15:56:50;7.77;;;5.17;;
2416;SDS011;1219;48.736;9.330;2022-11-11T15:59:21;8.13;;;6.57;;
2416;SDS011;1219;48.736;9.330;2022-11-11T16:01:48;10.37;;;7.80;;
2416;SDS011;1219;48.736;9.330;2022-11-11T16:04:17;8.30;;;6.50;;
2416;SDS011;1219;48.736;9.330;2022-11-11T16:06:45;7.43;;;6.80;;
2416;SDS011;1219;48.736;9.330;2022-11-11T16:09:12;8.10;;;7.40;;
2416;SDS011;1219;48.736;9.330;2022-11-11T16:11:38;7.70;;;6.80;;
2416;SDS011;1219;48.736;9.330;2022-11-11T16:14:05;7.13;;;6.43;;
2416;SDS011;1219;48.736;9.330;2022-11-11T16:16:35;7.87;;;7.07;;
2416;SDS011;1219;48.736;9.330;2022-11-11T16:19:26;9.57;;;7.27;;
2416;SDS011;1219;48.736;9.330;2022-11-11T16:21:54;9.13;;;7.07;;
2416;SDS011;1219;48.736;9.330;2022-11-11T16:24:23;9.47;;;8.07;;
2416;SDS011;1219;48.736;9.330;2022-11-11T16:26:50;11.73;;;7.50;;
2416;SDS011;1219;48.736;9.330;2022-11-11T16:29:16;9.23;;;7.47;;
2416;SDS011;1219;48.736;9.330;2022-11-11T16:31:44;9.13;;;6.80;;
2416;SDS011;1219;48.736;9.330;2022-11-11T16:36:58;14.10;;;7.67;;
2416;SDS011;1219;48.736;9.330;2022-11-11T16:39:24;8.83;;;6.80;;
2416;SDS011;1219;48.736;9.330;2022-11-11T16:41:51;14.87;;;7.07;;
2416;SDS011;1219;48.736;9.330;2022-11-11T16:44:28;10.20;;;8.50;;
2416;SDS011;1219;48.736;9.330;2022-11-11T16:46:57;9.10;;;8.30;;
2416;SDS011;1219;48.736;9.330;2022-11-11T16:51:55;10.93;;;7.40;;
2416;SDS011;1219;48.736;9.330;2022-11-11T16:54:26;10.20;;;8.17;;
2416;SDS011;1219;48.736;9.330;2022-11-11T16:56:54;11.03;;;9.20;;
2416;SDS011;1219;48.736;9.330;2022-11-11T17:01:59;10.17;;;8.37;;
2416;SDS011;1219;48.736;9.330;2022-11-11T17:04:25;8.97;;;7.40;;
2416;SDS011;1219;48.736;9.330;2022-11-11T17:09:25;8.70;;;7.70;;
2416;SDS011;1219;48.736;9.330;2022-11-11T17:11:51;9.40;;;7.80;;
2416;SDS011;1219;48.736;9.330;2022-11-11T17:14:17;11.17;;;7.83;;
2416;SDS011;1219;48.736;9.330;2022-11-11T17:16:43;12.90;;;11.50;;
2416;SDS011;1219;48.736;9.330;2022-11-11T17:19:09;14.50;;;11.67;;
2416;SDS011;1219;48.736;9.330;2022-11-11T17:21:35;13.70;;;12.27;;
2416;SDS011;1219;48.736;9.330;2022-11-11T17:24:01;10.63;;;9.57;;
2416;SDS011;1219;48.736;9.330;2022-11-11T17:26:27;10.70;;;9.23;;
2416;SDS011;1219;48.736;9.330;2022-11-11T17:28:54;9.57;;;8.67;;
2416;SDS011;1219;48.736;9.330;2022-11-11T17:31:20;10.40;;;9.40;;
2416;SDS011;1219;48.736;9.330;2022-11-11T17:33:48;11.10;;;9.80;;
2416;SDS011;1219;48.736;9.330;2022-11-11T17:36:14;17.23;;;10.53;;
2416;SDS011;1219;48.736;9.330;2022-11-11T17:38:40;10.77;;;9.77;;
2416;SDS011;1219;48.736;9.330;2022-11-11T17:41:06;10.50;;;9.10;;
2416;SDS011;1219;48.736;9.330;2022-11-11T17:43:32;11.20;;;10.07;;
2416;SDS011;1219;48.736;9.330;2022-11-11T17:46:02;10.87;;;9.77;;
2416;SDS011;1219;48.736;9.330;2022-11-11T17:48:28;11.43;;;9.17;;
2416;SDS011;1219;48.736;9.330;2022-11-11T17:50:54;12.20;;;11.00;;
2416;SDS011;1219;48.736;9.330;2022-11-11T17:53:20;11.80;;;10.20;;
2416;SDS011;1219;48.736;9.330;2022-11-11T17:55:46;11.77;;;10.67;;